Carlinville, Illinois
Current Conditions -  °F | °C
As of 9:35 AM on Thursday 30 Oct 2014 (Local Time) from K3LF Reporting Station
Broken Clouds Broken Clouds  
Wind Chill: 39°   Ceiling: 10000
Heat Index: 44°   Visibility: 10mi
Dew Point: 38°   Wind: 9mph
Humidity: 81%   Direction: 160°SSE
Pressure: 30.15"   Gusts: NA
Location:  39.28°N, 89.88°W
Report Text: K3LF 301435Z AUTO 16008KT 10SM BKN100 07/03 A3015 RMK AO2 T00650034
Loading
Personal Weather Stations






























Interactive Weather Map
Tropical Storm Tracking
New forecast layout! Learn more

10-Day Weather Forecast

Advertisements
Track Severe Weather on mobile